sensor_id;sensor_type;location;lat;lon;timestamp;pressure;altitude;pressure_sealevel;temperature;humidity
47530;BME280;33272;51.922;7.730;2023-04-21T00:01:43;145059.72;;;10.32;100.00
47530;BME280;33272;51.922;7.730;2023-04-21T00:04:10;145068.59;;;10.36;100.00
47530;BME280;33272;51.922;7.730;2023-04-21T00:06:40;145073.66;;;10.38;100.00
47530;BME280;33272;51.922;7.730;2023-04-21T00:09:09;145078.72;;;10.40;100.00
47530;BME280;33272;51.922;7.730;2023-04-21T00:11:36;145080.00;;;10.40;100.00
47530;BME280;33272;51.922;7.730;2023-04-21T00:14:03;145088.88;;;10.44;100.00
47530;BME280;33272;51.922;7.730;2023-04-21T00:16:30;145087.63;;;10.43;100.00
47530;BME280;33272;51.922;7.730;2023-04-21T00:18:57;145095.22;;;10.47;100.00
47530;BME280;33272;51.922;7.730;2023-04-21T00:21:24;145102.78;;;10.50;100.00
47530;BME280;33272;51.922;7.730;2023-04-21T00:23:53;145100.25;;;10.49;100.00
47530;BME280;33272;51.922;7.730;2023-04-21T00:26:20;145111.69;;;10.53;100.00
47530;BME280;33272;51.922;7.730;2023-04-21T00:28:47;145110.38;;;10.53;100.00
47530;BME280;33272;51.922;7.730;2023-04-21T00:31:14;145112.94;;;10.54;100.00
47530;BME280;33272;51.922;7.730;2023-04-21T00:33:41;145114.22;;;10.54;100.00
47530;BME280;33272;51.922;7.730;2023-04-21T00:36:08;145118.00;;;10.56;100.00
47530;BME280;33272;51.922;7.730;2023-04-21T00:38:35;145116.72;;;10.55;100.00
47530;BME280;33272;51.922;7.730;2023-04-21T00:41:04;145114.22;;;10.54;100.00
47530;BME280;33272;51.922;7.730;2023-04-21T00:43:31;145114.22;;;10.54;100.00
47530;BME280;33272;51.922;7.730;2023-04-21T00:45:58;145111.69;;;10.53;100.00
47530;BME280;33272;51.922;7.730;2023-04-21T00:48:25;145107.88;;;10.52;100.00
47530;BME280;33272;51.922;7.730;2023-04-21T00:50:52;145106.59;;;10.51;100.00
47530;BME280;33272;51.922;7.730;2023-04-21T00:53:19;145106.59;;;10.51;100.00
47530;BME280;33272;51.922;7.730;2023-04-21T00:55:46;145104.09;;;10.50;100.00
47530;BME280;33272;51.922;7.730;2023-04-21T00:58:15;145102.78;;;10.50;100.00
47530;BME280;33272;51.922;7.730;2023-04-21T01:00:42;145106.59;;;10.51;100.00
47530;BME280;33272;51.922;7.730;2023-04-21T01:03:09;145114.22;;;10.54;100.00
47530;BME280;33272;51.922;7.730;2023-04-21T01:05:36;145118.00;;;10.56;100.00
47530;BME280;33272;51.922;7.730;2023-04-21T01:08:04;145126.91;;;10.59;100.00
47530;BME280;33272;51.922;7.730;2023-04-21T01:10:32;145120.56;;;10.57;100.00
47530;BME280;33272;51.922;7.730;2023-04-21T01:12:59;145131.94;;;10.61;100.00
47530;BME280;33272;51.922;7.730;2023-04-21T01:15:27;145140.81;;;10.65;100.00
47530;BME280;33272;51.922;7.730;2023-04-21T01:17:56;145137.03;;;10.63;100.00
47530;BME280;33272;51.922;7.730;2023-04-21T01:20:23;145139.56;;;10.64;100.00
47530;BME280;33272;51.922;7.730;2023-04-21T01:22:51;145149.69;;;10.68;100.00
47530;BME280;33272;51.922;7.730;2023-04-21T01:25:18;145158.59;;;10.72;100.00
47530;BME280;33272;51.922;7.730;2023-04-21T01:27:50;145168.72;;;10.76;100.00
47530;BME280;33272;51.922;7.730;2023-04-21T01:30:17;145177.59;;;10.80;100.00
47530;BME280;33272;51.922;7.730;2023-04-21T01:32:44;145181.41;;;10.81;100.00
47530;BME280;33272;51.922;7.730;2023-04-21T01:35:11;145185.19;;;10.83;100.00
47530;BME280;33272;51.922;7.730;2023-04-21T01:37:38;145191.53;;;10.85;100.00
47530;BME280;33272;51.922;7.730;2023-04-21T01:40:09;145199.16;;;10.88;100.00
47530;BME280;33272;51.922;7.730;2023-04-21T01:42:40;145202.94;;;10.90;100.00
47530;BME280;33272;51.922;7.730;2023-04-21T01:45:08;145210.53;;;10.93;100.00
47530;BME280;33272;51.922;7.730;2023-04-21T01:47:35;145215.63;;;10.95;100.00
47530;BME280;33272;51.922;7.730;2023-04-21T01:50:03;145215.63;;;10.95;100.00
47530;BME280;33272;51.922;7.730;2023-04-21T01:52:30;145216.88;;;10.96;100.00
47530;BME280;33272;51.922;7.730;2023-04-21T01:54:57;145215.63;;;10.95;100.00
47530;BME280;33272;51.922;7.730;2023-04-21T01:57:25;145220.72;;;10.97;100.00
47530;BME280;33272;51.922;7.730;2023-04-21T01:59:52;145220.72;;;10.97;100.00
47530;BME280;33272;51.922;7.730;2023-04-21T02:02:19;145221.97;;;10.98;100.00
47530;BME280;33272;51.922;7.730;2023-04-21T02:04:46;145216.88;;;10.96;100.00
47530;BME280;33272;51.922;7.730;2023-04-21T02:07:13;145219.41;;;10.97;100.00
47530;BME280;33272;51.922;7.730;2023-04-21T02:09:40;145219.41;;;10.97;100.00
47530;BME280;33272;51.922;7.730;2023-04-21T02:12:07;145223.22;;;10.98;100.00
47530;BME280;33272;51.922;7.730;2023-04-21T02:14:37;145225.75;;;10.99;100.00
47530;BME280;33272;51.922;7.730;2023-04-21T02:17:04;145230.84;;;11.01;100.00
47530;BME280;33272;51.922;7.730;2023-04-21T02:19:31;145232.09;;;11.02;100.00
47530;BME280;33272;51.922;7.730;2023-04-21T02:21:58;145234.63;;;11.03;100.00
47530;BME280;33272;51.922;7.730;2023-04-21T02:24:25;145234.63;;;11.03;100.00
47530;BME280;33272;51.922;7.730;2023-04-21T02:26:52;145232.09;;;11.02;100.00
47530;BME280;33272;51.922;7.730;2023-04-21T02:29:19;145233.38;;;11.02;100.00
47530;BME280;33272;51.922;7.730;2023-04-21T02:31:48;145234.63;;;11.03;100.00
47530;BME280;33272;51.922;7.730;2023-04-21T02:34:15;145229.59;;;11.01;100.00
47530;BME280;33272;51.922;7.730;2023-04-21T02:36:42;145225.75;;;10.99;100.00
47530;BME280;33272;51.922;7.730;2023-04-21T02:39:09;145223.22;;;10.98;100.00
47530;BME280;33272;51.922;7.730;2023-04-21T02:41:36;145218.16;;;10.96;100.00
47530;BME280;33272;51.922;7.730;2023-04-21T02:44:03;145220.72;;;10.97;100.00
47530;BME280;33272;51.922;7.730;2023-04-21T02:46:30;145219.41;;;10.97;100.00
47530;BME280;33272;51.922;7.730;2023-04-21T02:48:59;145216.88;;;10.96;100.00
47530;BME280;33272;51.922;7.730;2023-04-21T02:51:26;145214.38;;;10.95;100.00
47530;BME280;33272;51.922;7.730;2023-04-21T02:53:53;145218.16;;;10.96;100.00
47530;BME280;33272;51.922;7.730;2023-04-21T02:56:20;145211.78;;;10.94;100.00
47530;BME280;33272;51.922;7.730;2023-04-21T02:58:47;145204.19;;;10.90;100.00
47530;BME280;33272;51.922;7.730;2023-04-21T03:01:14;145204.19;;;10.90;100.00
47530;BME280;33272;51.922;7.730;2023-04-21T03:03:41;145201.66;;;10.89;100.00
47530;BME280;33272;51.922;7.730;2023-04-21T03:06:09;145201.66;;;10.89;100.00
47530;BME280;33272;51.922;7.730;2023-04-21T03:08:36;145201.66;;;10.89;100.00
47530;BME280;33272;51.922;7.730;2023-04-21T03:11:03;145201.66;;;10.89;100.00
47530;BME280;33272;51.922;7.730;2023-04-21T03:13:30;145201.66;;;10.89;100.00
47530;BME280;33272;51.922;7.730;2023-04-21T03:15:57;145202.94;;;10.90;100.00
47530;BME280;33272;51.922;7.730;2023-04-21T03:18:24;145199.16;;;10.88;100.00
47530;BME280;33272;51.922;7.730;2023-04-21T03:20:58;145204.19;;;10.90;100.00
47530;BME280;33272;51.922;7.730;2023-04-21T03:23:26;145201.66;;;10.89;100.00
47530;BME280;33272;51.922;7.730;2023-04-21T03:25:53;145196.56;;;10.87;100.00
47530;BME280;33272;51.922;7.730;2023-04-21T03:28:20;145200.41;;;10.89;100.00
47530;BME280;33272;51.922;7.730;2023-04-21T03:30:47;145196.56;;;10.87;100.00
47530;BME280;33272;51.922;7.730;2023-04-21T03:33:15;145199.16;;;10.88;100.00
47530;BME280;33272;51.922;7.730;2023-04-21T03:35:42;145200.41;;;10.89;100.00
47530;BME280;33272;51.922;7.730;2023-04-21T03:38:09;145201.66;;;10.89;100.00
47530;BME280;33272;51.922;7.730;2023-04-21T03:40:37;145202.94;;;10.90;100.00
47530;BME280;33272;51.922;7.730;2023-04-21T03:43:04;145204.19;;;10.90;100.00
47530;BME280;33272;51.922;7.730;2023-04-21T03:45:33;145205.50;;;10.91;100.00
47530;BME280;33272;51.922;7.730;2023-04-21T03:48:00;145205.50;;;10.91;100.00
47530;BME280;33272;51.922;7.730;2023-04-21T03:50:28;145209.28;;;10.93;100.00
47530;BME280;33272;51.922;7.730;2023-04-21T03:52:55;145210.53;;;10.93;100.00
47530;BME280;33272;51.922;7.730;2023-04-21T03:55:22;145209.28;;;10.93;100.00
47530;BME280;33272;51.922;7.730;2023-04-21T03:57:50;145209.28;;;10.93;100.00
47530;BME280;33272;51.922;7.730;2023-04-21T04:00:17;145202.94;;;10.90;100.00
47530;BME280;33272;51.922;7.730;2023-04-21T04:02:45;145205.50;;;10.91;100.00
47530;BME280;33272;51.922;7.730;2023-04-21T04:05:12;145204.19;;;10.90;100.00
47530;BME280;33272;51.922;7.730;2023-04-21T04:07:39;145205.50;;;10.91;100.00
47530;BME280;33272;51.922;7.730;2023-04-21T04:10:06;145205.50;;;10.91;100.00
47530;BME280;33272;51.922;7.730;2023-04-21T04:12:33;145202.94;;;10.90;100.00
47530;BME280;33272;51.922;7.730;2023-04-21T04:15:02;145210.53;;;10.93;100.00
47530;BME280;33272;51.922;7.730;2023-04-21T04:17:29;145211.78;;;10.94;100.00
47530;BME280;33272;51.922;7.730;2023-04-21T04:19:56;145209.28;;;10.93;100.00
47530;BME280;33272;51.922;7.730;2023-04-21T04:22:23;145213.09;;;10.94;100.00
47530;BME280;33272;51.922;7.730;2023-04-21T04:24:50;145220.72;;;10.97;100.00
47530;BME280;33272;51.922;7.730;2023-04-21T04:27:17;145219.41;;;10.97;100.00
47530;BME280;33272;51.922;7.730;2023-04-21T04:29:45;145224.50;;;10.99;100.00
47530;BME280;33272;51.922;7.730;2023-04-21T04:32:15;145232.09;;;11.02;100.00
47530;BME280;33272;51.922;7.730;2023-04-21T04:34:42;145234.63;;;11.03;100.00
47530;BME280;33272;51.922;7.730;2023-04-21T04:37:09;145234.63;;;11.03;100.00
47530;BME280;33272;51.922;7.730;2023-04-21T04:39:37;145234.63;;;11.03;100.00
47530;BME280;33272;51.922;7.730;2023-04-21T04:42:06;145242.22;;;11.06;100.00
47530;BME280;33272;51.922;7.730;2023-04-21T04:44:33;145240.97;;;11.05;100.00
47530;BME280;33272;51.922;7.730;2023-04-21T04:47:01;145247.31;;;11.08;100.00
47530;BME280;33272;51.922;7.730;2023-04-21T04:49:29;145252.41;;;11.10;100.00
47530;BME280;33272;51.922;7.730;2023-04-21T04:51:56;145262.53;;;11.14;100.00
47530;BME280;33272;51.922;7.730;2023-04-21T04:54:24;145270.16;;;11.17;100.00
47530;BME280;33272;51.922;7.730;2023-04-21T04:56:53;145277.75;;;11.20;100.00
47530;BME280;33272;51.922;7.730;2023-04-21T04:59:20;145275.22;;;11.19;100.00
47530;BME280;33272;51.922;7.730;2023-04-21T05:01:47;145290.41;;;11.25;100.00
47530;BME280;33272;51.922;7.730;2023-04-21T05:04:14;145305.63;;;11.31;100.00
47530;BME280;33272;51.922;7.730;2023-04-21T05:06:43;145320.84;;;11.37;100.00
47530;BME280;33272;51.922;7.730;2023-04-21T05:09:10;145325.94;;;11.40;100.00
47530;BME280;33272;51.922;7.730;2023-04-21T05:11:37;145332.28;;;11.42;100.00
47530;BME280;33272;51.922;7.730;2023-04-21T05:14:04;145343.69;;;11.47;100.00
47530;BME280;33272;51.922;7.730;2023-04-21T05:16:31;145338.63;;;11.45;100.00
47530;BME280;33272;51.922;7.730;2023-04-21T05:19:00;145341.16;;;11.46;100.00
47530;BME280;33272;51.922;7.730;2023-04-21T05:21:28;145339.91;;;11.45;100.00
47530;BME280;33272;51.922;7.730;2023-04-21T05:23:58;145339.91;;;11.45;100.00
47530;BME280;33272;51.922;7.730;2023-04-21T05:26:26;145328.47;;;11.41;100.00
47530;BME280;33272;51.922;7.730;2023-04-21T05:28:54;145323.41;;;11.39;100.00
47530;BME280;33272;51.922;7.730;2023-04-21T05:31:22;145320.84;;;11.37;100.00
47530;BME280;33272;51.922;7.730;2023-04-21T05:33:48;145318.31;;;11.36;100.00
47530;BME280;33272;51.922;7.730;2023-04-21T05:36:16;145318.31;;;11.36;100.00
47530;BME280;33272;51.922;7.730;2023-04-21T05:38:45;145322.16;;;11.38;100.00
47530;BME280;33272;51.922;7.730;2023-04-21T05:41:13;145322.16;;;11.38;100.00
47530;BME280;33272;51.922;7.730;2023-04-21T05:43:40;145328.47;;;11.41;100.00
47530;BME280;33272;51.922;7.730;2023-04-21T05:46:09;145338.63;;;11.45;100.00
47530;BME280;33272;51.922;7.730;2023-04-21T05:48:36;145342.44;;;11.46;100.00
47530;BME280;33272;51.922;7.730;2023-04-21T05:51:09;145332.28;;;11.42;100.00
47530;BME280;33272;51.922;7.730;2023-04-21T05:53:37;145333.56;;;11.43;100.00
47530;BME280;33272;51.922;7.730;2023-04-21T05:56:05;145338.63;;;11.45;100.00
47530;BME280;33272;51.922;7.730;2023-04-21T05:58:35;145351.28;;;11.50;100.00
47530;BME280;33272;51.922;7.730;2023-04-21T06:01:03;145371.63;;;11.58;100.00
47530;BME280;33272;51.922;7.730;2023-04-21T06:03:31;145396.97;;;11.68;100.00
47530;BME280;33272;51.922;7.730;2023-04-21T06:05:59;145429.94;;;11.81;100.00
47530;BME280;33272;51.922;7.730;2023-04-21T06:08:26;145447.78;;;11.89;100.00
47530;BME280;33272;51.922;7.730;2023-04-21T06:10:54;145479.50;;;12.01;100.00
47530;BME280;33272;51.922;7.730;2023-04-21T06:13:21;145504.88;;;12.12;100.00
47530;BME280;33272;51.922;7.730;2023-04-21T06:15:49;145520.09;;;12.18;100.00
47530;BME280;33272;51.922;7.730;2023-04-21T06:18:16;145539.13;;;12.25;100.00
47530;BME280;33272;51.922;7.730;2023-04-21T06:20:49;145559.47;;;12.34;100.00
47530;BME280;33272;51.922;7.730;2023-04-21T06:23:16;145574.69;;;12.40;100.00
47530;BME280;33272;51.922;7.730;2023-04-21T06:25:43;145598.81;;;12.49;100.00
47530;BME280;33272;51.922;7.730;2023-04-21T06:28:10;145602.59;;;12.51;100.00
47530;BME280;33272;51.922;7.730;2023-04-21T06:30:38;145626.72;;;12.61;100.00
47530;BME280;33272;51.922;7.730;2023-04-21T06:33:06;145629.28;;;12.62;100.00
47530;BME280;33272;51.922;7.730;2023-04-21T06:35:33;145640.69;;;12.66;100.00
47530;BME280;33272;51.922;7.730;2023-04-21T06:38:00;145652.13;;;12.71;100.00
47530;BME280;33272;51.922;7.730;2023-04-21T06:40:28;145680.03;;;12.82;100.00
47530;BME280;33272;51.922;7.730;2023-04-21T06:42:55;145705.44;;;12.92;100.00
47530;BME280;33272;51.922;7.730;2023-04-21T06:45:22;145734.66;;;13.04;100.00
47530;BME280;33272;51.922;7.730;2023-04-21T06:47:49;145757.50;;;13.13;100.00
47530;BME280;33272;51.922;7.730;2023-04-21T06:50:18;145779.13;;;13.22;100.00
47530;BME280;33272;51.922;7.730;2023-04-21T06:52:45;145804.56;;;13.32;100.00
47530;BME280;33272;51.922;7.730;2023-04-21T06:55:12;145814.72;;;13.36;100.00
47530;BME280;33272;51.922;7.730;2023-04-21T06:57:39;145826.16;;;13.41;100.00
47530;BME280;33272;51.922;7.730;2023-04-21T07:00:07;145849.03;;;13.50;100.00
47530;BME280;33272;51.922;7.730;2023-04-21T07:02:35;145860.44;;;13.55;100.00
47530;BME280;33272;51.922;7.730;2023-04-21T07:05:02;145882.06;;;13.63;100.00
47530;BME280;33272;51.922;7.730;2023-04-21T07:07:31;145904.94;;;13.73;100.00
47530;BME280;33272;51.922;7.730;2023-04-21T07:09:58;145939.22;;;13.86;99.96
47530;BME280;33272;51.922;7.730;2023-04-21T07:12:25;145973.56;;;14.00;99.68
47530;BME280;33272;51.922;7.730;2023-04-21T07:14:52;146007.88;;;14.14;99.09
47530;BME280;33272;51.922;7.730;2023-04-21T07:17:19;146025.66;;;14.21;98.30
47530;BME280;33272;51.922;7.730;2023-04-21T07:19:46;146023.13;;;14.20;97.86
47530;BME280;33272;51.922;7.730;2023-04-21T07:22:13;146016.78;;;14.18;97.39
47530;BME280;33272;51.922;7.730;2023-04-21T07:24:41;146012.97;;;14.16;97.44
47530;BME280;33272;51.922;7.730;2023-04-21T07:27:08;146014.25;;;14.17;97.60
47530;BME280;33272;51.922;7.730;2023-04-21T07:29:35;146028.22;;;14.22;97.63
47530;BME280;33272;51.922;7.730;2023-04-21T07:32:03;146051.13;;;14.31;96.89
47530;BME280;33272;51.922;7.730;2023-04-21T07:34:30;146075.28;;;14.41;97.09
47530;BME280;33272;51.922;7.730;2023-04-21T07:36:57;146102.00;;;14.52;95.88
47530;BME280;33272;51.922;7.730;2023-04-21T07:39:24;146124.91;;;14.61;96.03
47530;BME280;33272;51.922;7.730;2023-04-21T07:41:52;146137.63;;;14.66;95.90
47530;BME280;33272;51.922;7.730;2023-04-21T07:44:20;146164.31;;;14.77;95.41
47530;BME280;33272;51.922;7.730;2023-04-21T07:46:47;146177.06;;;14.82;94.44
47530;BME280;33272;51.922;7.730;2023-04-21T07:49:14;146203.75;;;14.93;94.00
47530;BME280;33272;51.922;7.730;2023-04-21T07:51:41;146230.44;;;15.03;93.89
47530;BME280;33272;51.922;7.730;2023-04-21T07:54:08;146272.44;;;15.20;93.98
47530;BME280;33272;51.922;7.730;2023-04-21T07:56:35;146309.31;;;15.35;92.99
47530;BME280;33272;51.922;7.730;2023-04-21T07:59:04;146308.06;;;15.35;91.97
47530;BME280;33272;51.922;7.730;2023-04-21T08:01:31;146305.53;;;15.34;91.80
47530;BME280;33272;51.922;7.730;2023-04-21T08:03:58;146342.44;;;15.48;92.04
47530;BME280;33272;51.922;7.730;2023-04-21T08:06:25;146397.22;;;15.70;91.32
47530;BME280;33272;51.922;7.730;2023-04-21T08:08:52;146439.19;;;15.87;90.45
47530;BME280;33272;51.922;7.730;2023-04-21T08:11:20;146492.66;;;16.09;90.07
47530;BME280;33272;51.922;7.730;2023-04-21T08:13:48;146544.84;;;16.30;89.22
47530;BME280;33272;51.922;7.730;2023-04-21T08:16:17;146605.97;;;16.54;88.38
47530;BME280;33272;51.922;7.730;2023-04-21T08:18:44;146658.25;;;16.75;87.33
47530;BME280;33272;51.922;7.730;2023-04-21T08:21:11;146679.94;;;16.84;86.43
47530;BME280;33272;51.922;7.730;2023-04-21T08:23:38;146677.34;;;16.83;85.26
47530;BME280;33272;51.922;7.730;2023-04-21T08:26:05;146719.41;;;17.00;85.79
47530;BME280;33272;51.922;7.730;2023-04-21T08:28:32;146737.25;;;17.07;84.80
47530;BME280;33272;51.922;7.730;2023-04-21T08:30:59;146784.38;;;17.26;84.66
47530;BME280;33272;51.922;7.730;2023-04-21T08:33:28;146804.78;;;17.34;83.14
47530;BME280;33272;51.922;7.730;2023-04-21T08:35:55;146806.06;;;17.34;81.66
47530;BME280;33272;51.922;7.730;2023-04-21T08:38:22;146818.78;;;17.40;82.61
47530;BME280;33272;51.922;7.730;2023-04-21T08:40:49;146864.66;;;17.58;82.15
47530;BME280;33272;51.922;7.730;2023-04-21T08:43:16;146885.06;;;17.66;81.33
47530;BME280;33272;51.922;7.730;2023-04-21T08:45:43;146894.00;;;17.70;80.84
47530;BME280;33272;51.922;7.730;2023-04-21T08:48:13;146891.47;;;17.69;80.01
47530;BME280;33272;51.922;7.730;2023-04-21T08:50:48;146910.56;;;17.76;80.47
47530;BME280;33272;51.922;7.730;2023-04-21T08:53:15;146925.91;;;17.82;80.55
47530;BME280;33272;51.922;7.730;2023-04-21T08:55:43;146932.28;;;17.85;79.99
47530;BME280;33272;51.922;7.730;2023-04-21T08:58:10;146900.38;;;17.72;78.29
47530;BME280;33272;51.922;7.730;2023-04-21T09:00:38;146887.63;;;17.67;79.57
47530;BME280;33272;51.922;7.730;2023-04-21T09:03:06;146895.25;;;17.70;79.98
47530;BME280;33272;51.922;7.730;2023-04-21T09:05:34;146908.03;;;17.75;79.08
47530;BME280;33272;51.922;7.730;2023-04-21T09:08:10;146961.59;;;17.97;78.51
47530;BME280;33272;51.922;7.730;2023-04-21T09:10:49;147010.06;;;18.16;78.07
47530;BME280;33272;51.922;7.730;2023-04-21T09:13:18;147031.72;;;18.25;76.96
47530;BME280;33272;51.922;7.730;2023-04-21T09:15:47;146999.84;;;18.12;77.15
47530;BME280;33272;51.922;7.730;2023-04-21T09:18:16;146994.78;;;18.10;77.38
47530;BME280;33272;51.922;7.730;2023-04-21T09:20:46;146973.09;;;18.01;76.32
47530;BME280;33272;51.922;7.730;2023-04-21T09:23:15;146969.22;;;18.00;76.45
47530;BME280;33272;51.922;7.730;2023-04-21T09:25:44;146966.69;;;17.99;76.15
47530;BME280;33272;51.922;7.730;2023-04-21T09:28:13;146987.13;;;18.07;77.07
47530;BME280;33272;51.922;7.730;2023-04-21T09:30:41;147022.78;;;18.21;76.10
47530;BME280;33272;51.922;7.730;2023-04-21T09:33:14;147064.91;;;18.38;75.66
47530;BME280;33272;51.922;7.730;2023-04-21T09:35:42;147104.44;;;18.54;75.66
47530;BME280;33272;51.922;7.730;2023-04-21T09:38:11;147117.19;;;18.59;74.46
47530;BME280;33272;51.922;7.730;2023-04-21T09:40:39;147151.69;;;18.73;74.16
47530;BME280;33272;51.922;7.730;2023-04-21T09:43:06;147207.81;;;18.95;74.68
47530;BME280;33272;51.922;7.730;2023-04-21T09:45:33;147260.13;;;19.16;73.96
47530;BME280;33272;51.922;7.730;2023-04-21T09:48:03;147307.34;;;19.35;73.27
47530;BME280;33272;51.922;7.730;2023-04-21T09:50:31;147357.16;;;19.55;72.86
47530;BME280;33272;51.922;7.730;2023-04-21T09:52:59;147396.78;;;19.71;72.66
47530;BME280;33272;51.922;7.730;2023-04-21T09:55:30;147426.09;;;19.83;72.02
47530;BME280;33272;51.922;7.730;2023-04-21T09:58:00;147437.63;;;19.87;69.96
47530;BME280;33272;51.922;7.730;2023-04-21T10:00:30;147422.28;;;19.81;70.60
47530;BME280;33272;51.922;7.730;2023-04-21T10:02:59;147442.72;;;19.89;69.95
47530;BME280;33272;51.922;7.730;2023-04-21T10:05:30;147447.81;;;19.91;70.28
47530;BME280;33272;51.922;7.730;2023-04-21T10:07:57;147438.88;;;19.88;68.73
47530;BME280;33272;51.922;7.730;2023-04-21T10:10:28;147451.66;;;19.93;69.25
47530;BME280;33272;51.922;7.730;2023-04-21T10:12:56;147468.25;;;20.00;68.77
47530;BME280;33272;51.922;7.730;2023-04-21T10:15:33;147507.84;;;20.16;68.27
47530;BME280;33272;51.922;7.730;2023-04-21T10:18:15;147538.50;;;20.28;67.08
47530;BME280;33272;51.922;7.730;2023-04-21T10:20:54;147576.84;;;20.43;67.62
47530;BME280;33272;51.922;7.730;2023-04-21T10:23:34;147574.25;;;20.42;66.55
47530;BME280;33272;51.922;7.730;2023-04-21T10:26:05;147546.16;;;20.31;67.28
47530;BME280;33272;51.922;7.730;2023-04-21T10:28:51;147538.50;;;20.28;67.08
47530;BME280;33272;51.922;7.730;2023-04-21T10:31:23;147506.56;;;20.15;67.30
47530;BME280;33272;51.922;7.730;2023-04-21T10:34:20;147445.28;;;19.90;62.81
47530;BME280;33272;51.922;7.730;2023-04-21T10:37:15;147432.50;;;19.85;65.52
47530;BME280;33272;51.922;7.730;2023-04-21T10:39:54;147418.47;;;19.80;63.25
47530;BME280;33272;51.922;7.730;2023-04-21T10:42:28;147442.72;;;19.89;67.63
47530;BME280;33272;51.922;7.730;2023-04-21T10:45:07;147460.59;;;19.97;67.76
47530;BME280;33272;51.922;7.730;2023-04-21T10:47:43;147474.66;;;20.02;66.14
47530;BME280;33272;51.922;7.730;2023-04-21T10:50:22;147504.00;;;20.14;66.33
47530;BME280;33272;51.922;7.730;2023-04-21T10:53:06;147497.66;;;20.11;65.54
47530;BME280;33272;51.922;7.730;2023-04-21T10:55:34;147502.72;;;20.13;65.38
47530;BME280;33272;51.922;7.730;2023-04-21T10:58:03;147493.78;;;20.10;65.53
47530;BME280;33272;51.922;7.730;2023-04-21T11:00:30;147482.31;;;20.05;65.08
47530;BME280;33272;51.922;7.730;2023-04-21T11:03:01;147451.66;;;19.93;63.52
47530;BME280;33272;51.922;7.730;2023-04-21T11:05:30;147460.59;;;19.97;64.12
47530;BME280;33272;51.922;7.730;2023-04-21T11:08:07;147483.59;;;20.06;64.29
47530;BME280;33272;51.922;7.730;2023-04-21T11:10:51;147502.72;;;20.13;63.14
47530;BME280;33272;51.922;7.730;2023-04-21T11:13:23;147543.59;;;20.30;63.93
47530;BME280;33272;51.922;7.730;2023-04-21T11:16:00;147530.84;;;20.25;62.95
47530;BME280;33272;51.922;7.730;2023-04-21T11:18:41;147509.13;;;20.16;61.36
47530;BME280;33272;51.922;7.730;2023-04-21T11:21:14;147489.97;;;20.08;60.88
47530;BME280;33272;51.922;7.730;2023-04-21T11:23:51;147486.13;;;20.07;62.06
47530;BME280;33272;51.922;7.730;2023-04-21T11:26:30;147472.06;;;20.01;60.16
47530;BME280;33272;51.922;7.730;2023-04-21T11:29:00;147482.31;;;20.05;62.12
47530;BME280;33272;51.922;7.730;2023-04-21T11:31:28;147515.50;;;20.19;62.39
47530;BME280;33272;51.922;7.730;2023-04-21T11:33:57;147556.38;;;20.35;61.98
47530;BME280;33272;51.922;7.730;2023-04-21T11:36:25;147561.50;;;20.37;61.27
47530;BME280;33272;51.922;7.730;2023-04-21T11:38:52;147602.41;;;20.53;61.46
47530;BME280;33272;51.922;7.730;2023-04-21T11:41:22;147619.03;;;20.60;61.02
47530;BME280;33272;51.922;7.730;2023-04-21T11:43:50;147647.16;;;20.71;60.95
47530;BME280;33272;51.922;7.730;2023-04-21T11:46:22;147689.28;;;20.88;60.23
47530;BME280;33272;51.922;7.730;2023-04-21T11:49:00;147722.50;;;21.01;59.30
47530;BME280;33272;51.922;7.730;2023-04-21T11:51:32;147783.84;;;21.26;59.02
47530;BME280;33272;51.922;7.730;2023-04-21T11:54:00;147872.09;;;21.61;59.20
47530;BME280;33272;51.922;7.730;2023-04-21T11:56:27;147952.66;;;21.93;58.44
47530;BME280;33272;51.922;7.730;2023-04-21T11:58:54;148012.81;;;22.17;58.54
47530;BME280;33272;51.922;7.730;2023-04-21T12:01:21;148062.69;;;22.37;57.63
47530;BME280;33272;51.922;7.730;2023-04-21T12:03:52;148095.94;;;22.51;56.42
47530;BME280;33272;51.922;7.730;2023-04-21T12:06:23;148070.34;;;22.40;53.11
47530;BME280;33272;51.922;7.730;2023-04-21T12:08:56;148019.22;;;22.20;51.67
47530;BME280;33272;51.922;7.730;2023-04-21T12:11:26;148040.94;;;22.29;55.94
47530;BME280;33272;51.922;7.730;2023-04-21T12:13:56;148024.31;;;22.22;54.67
47530;BME280;33272;51.922;7.730;2023-04-21T12:16:23;147985.88;;;22.07;54.68
47530;BME280;33272;51.922;7.730;2023-04-21T12:18:53;147956.50;;;21.95;55.03
47530;BME280;33272;51.922;7.730;2023-04-21T12:21:25;147937.28;;;21.87;54.75
47530;BME280;33272;51.922;7.730;2023-04-21T12:23:52;147909.19;;;21.76;54.63
47530;BME280;33272;51.922;7.730;2023-04-21T12:26:20;147882.31;;;21.65;54.56
47530;BME280;33272;51.922;7.730;2023-04-21T12:28:47;147850.34;;;21.52;54.23
47530;BME280;33272;51.922;7.730;2023-04-21T12:31:14;147827.34;;;21.43;54.31
47530;BME280;33272;51.922;7.730;2023-04-21T12:33:41;147850.34;;;21.52;54.37
47530;BME280;33272;51.922;7.730;2023-04-21T12:36:08;147840.16;;;21.48;55.16
47530;BME280;33272;51.922;7.730;2023-04-21T12:38:37;147843.94;;;21.50;55.05
47530;BME280;33272;51.922;7.730;2023-04-21T12:41:04;147851.63;;;21.53;55.79
47530;BME280;33272;51.922;7.730;2023-04-21T12:43:32;147850.34;;;21.52;55.39
47530;BME280;33272;51.922;7.730;2023-04-21T12:45:59;147859.28;;;21.56;54.91
47530;BME280;33272;51.922;7.730;2023-04-21T12:48:26;147845.28;;;21.50;54.39
47530;BME280;33272;51.922;7.730;2023-04-21T12:50:53;147817.13;;;21.39;53.67
47530;BME280;33272;51.922;7.730;2023-04-21T12:53:20;147781.31;;;21.25;52.55